Time;durP1;ratioP1;P1;durP2;ratioP2;P2;SDS_P1;SDS_P2;PMS_P1;PMS_P2;Temp;Humidity;BMP_temperature;BMP_pressure;BME280_temperature;BME280_humidity;BME280_pressure;Samples;Min_cycle;Max_cycle;Signal;HPM_P1;HPM_P2
2021/11/01 00:00:57;;;;;;;57.58;25.83;;;;;;;12.92;85.81;98402.38;5139169;27;20138;-95
2021/11/01 00:03:24;;;;;;;53.80;26.15;;;;;;;12.91;85.82;98396.19;5139806;27;20496;-95
2021/11/01 00:05:50;;;;;;;55.78;26.48;;;;;;;12.97;85.71;98407.50;5140669;27;20103;-95
2021/11/01 00:08:16;;;;;;;60.17;26.67;;;;;;;12.91;86.21;98395.31;5140025;27;20051;-95
2021/11/01 00:10:42;;;;;;;58.38;28.08;;;;;;;13.00;86.40;98410.94;5140262;27;20050;-95
2021/11/01 00:13:08;;;;;;;59.90;28.08;;;;;;;13.01;86.77;98418.03;5161701;27;20035;-96
2021/11/01 00:15:36;;;;;;;61.03;27.88;;;;;;;12.93;86.79;98413.00;5161588;27;20050;-94
2021/11/01 00:18:04;;;;;;;59.47;29.67;;;;;;;12.86;86.57;98399.97;5161592;27;20403;-96
2021/11/01 00:20:31;;;;;;;60.58;28.73;;;;;;;12.83;86.76;98392.97;5140879;27;20062;-95
2021/11/01 00:22:57;;;;;;;56.70;27.15;;;;;;;13.01;86.43;98423.38;5140158;27;20517;-95
2021/11/01 00:25:23;;;;;;;59.80;27.42;;;;;;;12.97;86.09;98411.06;5141324;27;20046;-94
2021/11/01 00:27:50;;;;;;;49.97;25.27;;;;;;;12.88;85.71;98385.66;5146917;27;20034;-96
2021/11/01 00:30:19;;;;;;;53.38;25.77;;;;;;;13.02;85.03;98394.84;5146634;27;20058;-95
2021/11/01 00:32:47;;;;;;;52.75;25.67;;;;;;;13.09;84.92;98404.31;5157691;27;20130;-94
2021/11/01 00:35:14;;;;;;;52.07;26.57;;;;;;;13.01;84.93;98391.34;5160677;27;20035;-96
2021/11/01 00:37:41;;;;;;;50.42;24.20;;;;;;;13.14;84.90;98400.53;5140044;27;20043;-96
2021/11/01 00:40:08;;;;;;;50.50;24.80;;;;;;;13.11;84.74;98399.78;5139069;27;20039;-95
2021/11/01 00:42:34;;;;;;;53.40;25.45;;;;;;;13.08;84.92;98398.13;5138408;27;20043;-95
2021/11/01 00:45:00;;;;;;;53.50;25.92;;;;;;;12.99;85.47;98378.97;5138262;27;20046;-94
2021/11/01 00:47:26;;;;;;;55.78;24.98;;;;;;;13.00;86.18;98394.91;5138257;27;20043;-96
2021/11/01 00:49:54;;;;;;;48.85;25.13;;;;;;;13.03;85.84;98392.09;5139223;27;20370;-96
2021/11/01 00:52:25;;;;;;;56.57;27.37;;;;;;;13.09;86.13;98393.66;5139082;27;20046;-94
2021/11/01 00:54:57;;;;;;;53.45;26.60;;;;;;;13.18;86.05;98405.72;5138815;27;20043;-96
2021/11/01 00:57:23;;;;;;;59.38;28.05;;;;;;;13.17;86.22;98406.69;5144236;27;20098;-96
2021/11/01 00:59:49;;;;;;;62.55;28.92;;;;;;;12.97;86.67;98375.50;5155221;27;20118;-95
2021/11/01 01:02:15;;;;;;;65.45;29.55;;;;;;;12.90;87.61;98385.56;5139671;27;20069;-95
2021/11/01 01:04:41;;;;;;;70.50;30.17;;;;;;;12.86;88.04;98386.63;5145367;27;20034;-94
2021/11/01 01:07:09;;;;;;;65.97;31.10;;;;;;;12.91;88.61;98401.50;5147951;27;20047;-94
2021/11/01 01:09:35;;;;;;;68.18;31.45;;;;;;;12.86;88.38;98371.50;5139428;27;20042;-95
2021/11/01 01:12:02;;;;;;;64.10;28.83;;;;;;;12.91;88.33;98385.50;5146696;27;20413;-95
2021/11/01 01:14:30;;;;;;;70.70;31.30;;;;;;;12.91;88.38;98379.31;5142964;27;20063;-95
2021/11/01 01:16:58;;;;;;;71.75;30.83;;;;;;;12.80;88.26;98361.09;5138351;27;20044;-95
2021/11/01 01:19:30;;;;;;;64.78;30.30;;;;;;;12.94;88.24;98373.81;5140117;27;20043;-95
2021/11/01 01:25:12;;;;;;;71.93;32.33;;;;;;;12.92;88.25;98365.91;5156636;27;20378;-94
2021/11/01 01:27:41;;;;;;;71.57;31.85;;;;;;;12.79;88.69;98346.00;5156954;27;20043;-95
2021/11/01 01:30:09;;;;;;;78.75;33.20;;;;;;;12.80;88.81;98342.41;5155613;27;20057;-94
2021/11/01 01:32:35;;;;;;;73.63;32.78;;;;;;;12.88;88.56;98347.41;5142173;27;20047;-94
2021/11/01 01:35:02;;;;;;;77.05;34.05;;;;;;;12.71;89.20;98330.31;5135312;28;20120;-94
2021/11/01 01:37:28;;;;;;;77.78;33.53;;;;;;;12.74;88.65;98319.50;5135351;28;20488;-95
2021/11/01 01:39:54;;;;;;;72.25;32.30;;;;;;;12.77;88.98;98313.16;5150805;27;20046;-95
2021/11/01 01:42:21;;;;;;;71.55;31.40;;;;;;;12.76;89.20;98315.94;5156641;27;20504;-96
2021/11/01 01:44:47;;;;;;;78.50;32.28;;;;;;;12.87;89.12;98325.19;5157241;27;20131;-96
2021/11/01 01:47:13;;;;;;;82.43;36.15;;;;;;;12.80;89.94;98323.72;5157933;27;20051;-95
2021/11/01 01:49:39;;;;;;;78.53;33.33;;;;;;;12.64;89.87;98295.97;5151385;27;20035;-95
2021/11/01 01:52:09;;;;;;;79.97;34.75;;;;;;;12.55;90.32;98294.56;5155357;27;20584;-95
2021/11/01 01:54:35;;;;;;;76.10;34.28;;;;;;;12.59;90.58;98297.97;5137752;27;20039;-96
2021/11/01 01:57:02;;;;;;;74.70;34.88;;;;;;;12.61;90.55;98296.09;5143591;27;20537;-94
2021/11/01 01:59:29;;;;;;;76.97;32.92;;;;;;;12.54;90.27;98267.03;5138127;27;20047;-95
2021/11/01 02:01:56;;;;;;;76.18;32.95;;;;;;;12.45;91.07;98264.75;5145090;27;20039;-95
2021/11/01 02:04:25;;;;;;;90.43;36.22;;;;;;;12.44;90.88;98265.69;5154217;27;20043;-95
2021/11/01 02:10:08;;;;;;;81.38;33.80;;;;;;;12.40;91.02;98271.22;5133897;27;20425;-95
2021/11/01 02:12:41;;;;;;;73.32;33.38;;;;;;;12.47;90.90;98280.66;5095902;28;20051;-96
2021/11/01 02:15:13;;;;;;;78.22;33.45;;;;;;;12.45;91.20;98278.09;5105130;28;20051;-95
2021/11/01 02:17:41;;;;;;;80.60;34.78;;;;;;;12.34;91.12;98253.69;5116016;28;20071;-95
2021/11/01 02:20:10;;;;;;;71.80;32.50;;;;;;;12.32;91.12;98245.75;5116524;28;20458;-94
2021/11/01 02:22:50;;;;;;;70.38;30.25;;;;;;;12.34;90.94;98256.34;5103372;28;20044;-95
2021/11/01 02:25:37;;;;;;;73.38;30.35;;;;;;;12.39;90.63;98256.16;5098396;28;20131;-96
2021/11/01 02:28:03;;;;;;;68.97;29.80;;;;;;;12.44;90.42;98263.00;5116806;28;20048;-96
2021/11/01 02:30:30;;;;;;;64.30;28.05;;;;;;;12.39;89.47;98238.34;5117560;28;20051;-95
2021/11/01 02:32:59;;;;;;;61.15;28.73;;;;;;;12.46;88.56;98245.16;5110248;28;20071;-95
2021/11/01 02:35:25;;;;;;;;;;;;;;;12.63;88.63;98268.44;5095894;28;20044;-94
2021/11/01 02:37:52;;;;;;;57.88;26.27;;;;;;;12.46;88.83;98239.81;5094315;28;19916;-94
2021/11/01 02:40:18;;;;;;;62.45;27.85;;;;;;;12.43;89.09;98228.44;5094096;28;20063;-93
2021/11/01 02:42:45;;;;;;;59.33;28.60;;;;;;;12.51;89.30;98245.84;5093837;28;20054;-95
2021/11/01 02:45:13;;;;;;;56.90;27.40;;;;;;;12.59;89.39;98256.16;5093694;28;20045;-94
2021/11/01 02:47:40;;;;;;;63.05;27.90;;;;;;;12.41;90.57;98238.28;5101956;28;20062;-93
2021/11/01 02:50:09;;;;;;;60.75;26.02;;;;;;;12.28;90.96;98237.94;5098880;28;20041;-94
2021/11/01 02:52:36;;;;;;;61.40;26.83;;;;;;;12.37;91.59;98266.88;5093321;28;20494;-95
2021/11/01 02:55:07;;;;;;;56.08;26.85;;;;;;;12.32;91.54;98258.22;5093966;28;20127;-95
2021/11/01 02:57:38;;;;;;;56.38;25.63;;;;;;;12.33;92.12;98266.13;5099815;28;20037;-96
2021/11/01 03:00:09;;;;;;;57.88;26.77;;;;;;;12.17;92.16;98257.06;5096163;28;20048;-95
2021/11/01 03:02:36;;;;;;;52.45;25.52;;;;;;;12.14;92.23;98246.50;5095510;28;20040;-96
2021/11/01 03:05:08;;;;;;;56.10;26.67;;;;;;;12.26;91.82;98258.47;5094878;28;20076;-95
2021/11/01 03:07:35;;;;;;;56.63;26.75;;;;;;;12.13;91.90;98227.00;5102846;28;20043;-94
2021/11/01 03:10:02;;;;;;;47.42;23.67;;;;;;;12.21;91.88;98234.69;5115640;28;20137;-96
2021/11/01 03:12:29;;;;;;;50.40;24.48;;;;;;;12.24;92.00;98242.53;5115110;28;20043;-94
2021/11/01 03:15:05;;;;;;;46.55;22.75;;;;;;;12.06;92.32;98232.66;5116658;28;20051;-95
2021/11/01 03:17:38;;;;;;;53.10;23.77;;;;;;;11.96;93.72;98244.63;5114464;28;20435;-95
2021/11/01 03:20:11;;;;;;;60.78;26.63;;;;;;;11.75;94.19;98212.56;5108619;28;20519;-96
2021/11/01 03:22:41;;;;;;;53.80;25.55;;;;;;;11.72;94.07;98208.22;5102449;28;20396;-96
2021/11/01 03:25:18;;;;;;;63.60;29.08;;;;;;;11.80;93.77;98201.75;5101075;28;20123;-95
2021/11/01 03:27:47;;;;;;;61.30;26.67;;;;;;;11.86;93.37;98206.78;5099964;28;20043;-94
2021/11/01 03:30:14;;;;;;;67.32;29.95;;;;;;;11.78;93.91;98195.59;5099305;28;20040;-95
2021/11/01 03:32:43;;;;;;;60.35;27.23;;;;;;;11.66;93.66;98186.31;5099679;28;20130;-95
2021/11/01 03:35:09;;;;;;;64.85;29.35;;;;;;;11.59;93.98;98187.50;5099923;28;20025;-94
2021/11/01 03:37:37;;;;;;;65.15;28.95;;;;;;;11.54;94.16;98185.00;5099566;28;20055;-95
2021/11/01 03:40:04;;;;;;;61.72;27.15;;;;;;;11.57;94.74;98195.53;5096601;28;20074;-94
2021/11/01 03:42:31;;;;;;;62.58;28.65;;;;;;;11.52;94.49;98179.75;5078594;28;20045;-96
2021/11/01 03:51:05;;;;;;;75.30;32.63;;;;;;;11.86;94.74;98183.69;5115026;27;20357;-95
2021/11/01 03:53:31;;;;;;;75.25;34.10;;;;;;;11.88;94.77;98173.88;5114754;28;20095;-95
2021/11/01 03:55:57;;;;;;;74.43;32.78;;;;;;;11.89;94.66;98169.41;5115452;28;20044;-95
2021/11/01 03:58:24;;;;;;;78.32;35.10;;;;;;;11.94;94.78;98185.19;5112964;28;20217;-94
2021/11/01 04:00:52;;;;;;;77.78;33.50;;;;;;;12.03;94.41;98192.78;5113932;28;20556;-94
2021/11/01 04:03:20;;;;;;;70.72;31.17;;;;;;;12.24;93.35;98196.34;5114647;28;20130;-95
2021/11/01 04:05:46;;;;;;;81.13;32.35;;;;;;;12.21;92.49;98164.47;5114534;28;20044;-96
2021/11/01 04:08:14;;;;;;;76.35;34.35;;;;;;;12.27;93.17;98189.09;5114622;28;20093;-94
2021/11/01 04:10:40;;;;;;;75.15;32.35;;;;;;;12.15;94.28;98183.44;5114008;28;20555;-93
2021/11/01 04:13:06;;;;;;;79.07;35.95;;;;;;;11.98;94.48;98163.69;5114728;28;20524;-95
2021/11/01 04:15:37;;;;;;;79.38;33.65;;;;;;;12.04;94.93;98171.41;5114011;28;20039;-95
2021/11/01 04:18:04;;;;;;;75.93;32.85;;;;;;;11.97;94.98;98159.31;5114471;28;20063;-95
2021/11/01 04:23:35;;;;;;;74.35;33.28;;;;;;;11.95;94.83;98163.81;5094641;27;20385;-94
2021/11/01 04:26:02;;;;;;;77.75;33.83;;;;;;;11.79;95.23;98141.38;5095066;28;20041;-94
2021/11/01 04:28:29;;;;;;;76.38;33.60;;;;;;;11.86;95.25;98158.81;5095001;28;20501;-96
2021/11/01 04:31:05;;;;;;;73.45;31.13;;;;;;;11.86;95.09;98157.06;5093795;28;20055;-95
2021/11/01 04:33:33;;;;;;;76.30;31.85;;;;;;;12.00;95.14;98182.28;5094919;28;20040;-95
2021/11/01 04:35:59;;;;;;;75.28;32.10;;;;;;;11.90;94.84;98165.81;5095060;28;20191;-95
2021/11/01 04:53:38;;;;;;;63.15;28.70;;;;;;;11.73;95.61;98166.47;5135056;27;20380;-95
2021/11/01 04:56:05;;;;;;;62.17;28.40;;;;;;;11.81;95.63;98183.00;5135066;27;20488;-95
2021/11/01 04:58:32;;;;;;;60.35;28.77;;;;;;;11.77;95.55;98181.41;5135295;27;20134;-95
2021/11/01 05:00:58;;;;;;;62.10;27.67;;;;;;;11.78;95.34;98177.81;5134885;27;20050;-95
2021/11/01 05:03:33;;;;;;;62.45;27.38;;;;;;;11.82;95.20;98187.41;5134788;27;20043;-96
2021/11/01 05:06:00;;;;;;;60.53;27.73;;;;;;;11.84;95.20;98187.34;5135408;27;20044;-94
2021/11/01 05:08:32;;;;;;;58.90;28.20;;;;;;;11.75;95.37;98171.75;5134748;27;20032;-95
2021/11/01 05:11:09;;;;;;;60.95;27.58;;;;;;;11.81;95.23;98171.50;5134792;27;20516;-95
2021/11/01 05:13:37;;;;;;;57.72;26.50;;;;;;;11.88;95.84;98183.66;5134986;27;20043;-94
2021/11/01 05:22:17;;;;;;;60.38;26.10;;;;;;;11.91;95.69;98184.41;5156523;27;20362;-95
2021/11/01 05:30:54;;;;;;;61.42;28.55;;;;;;;11.94;95.67;98188.72;5116689;27;20888;-94
2021/11/01 05:36:23;;;;;;;64.50;30.42;;;;;;;11.92;95.78;98171.94;5136800;27;20391;-96
2021/11/01 05:38:49;;;;;;;68.90;29.25;;;;;;;11.94;95.67;98167.41;5137153;28;20050;-94
2021/11/01 05:41:16;;;;;;;67.80;30.23;;;;;;;11.91;95.70;98162.22;5135310;28;20082;-96
2021/11/01 05:43:42;;;;;;;67.25;29.45;;;;;;;11.84;95.45;98160.69;5134882;28;20048;-96
2021/11/01 05:46:08;;;;;;;61.42;28.42;;;;;;;11.86;95.90;98162.38;5135258;28;20057;-95
2021/11/01 05:48:36;;;;;;;63.58;28.95;;;;;;;11.81;95.49;98151.03;5135740;27;20123;-96
2021/11/01 05:51:02;;;;;;;64.18;30.08;;;;;;;11.97;95.84;98193.94;5134901;28;20515;-96
2021/11/01 05:53:34;;;;;;;63.40;29.65;;;;;;;11.91;95.70;98180.88;5134365;28;20047;-96
2021/11/01 06:07:55;;;;;;;65.50;28.48;;;;;;;12.08;93.47;98151.72;5128115;27;20945;-94
2021/11/01 06:16:25;;;;;;;65.13;30.13;;;;;;;11.99;94.33;98160.09;5115789;27;20376;-96
2021/11/01 06:18:53;;;;;;;66.93;29.02;;;;;;;11.91;94.75;98143.56;5116975;28;20478;-96
2021/11/01 06:21:19;;;;;;;61.58;28.23;;;;;;;12.07;93.89;98163.28;5116094;28;20443;-94
2021/11/01 06:23:50;;;;;;;62.85;28.27;;;;;;;12.06;93.46;98153.56;5115350;28;20040;-94
2021/11/01 06:26:17;;;;;;;63.83;29.60;;;;;;;12.05;93.98;98165.16;5114914;28;20038;-96
2021/11/01 06:28:44;;;;;;;66.88;30.27;;;;;;;12.09;94.19;98176.56;5115061;28;20048;-96
2021/11/01 06:31:19;;;;;;;62.60;28.83;;;;;;;12.11;93.76;98170.22;5113703;28;20051;-96
2021/11/01 06:39:57;;;;;;;62.35;28.73;;;;;;;12.07;93.46;98151.75;5094514;27;20398;-94
2021/11/01 06:57:22;;;;;;;55.22;27.75;;;;;;;12.19;93.80;98156.56;5157672;27;20336;-94
2021/11/01 07:18:27;;;;;;;58.00;27.08;;;;;;;12.75;90.43;98168.28;5117831;27;20389;-94
2021/11/01 08:42:37;;;;;;;52.63;25.55;;;;;;;14.35;80.86;98066.94;5119561;27;20381;-94
2021/11/01 08:51:15;;;;;;;45.65;23.52;;;;;;;14.36;79.70;98050.81;5138657;27;20393;-96
2021/11/01 09:41:49;;;;;;;38.65;21.17;;;;;;;15.16;74.21;97983.97;5077724;27;20407;-96
2021/11/01 09:44:22;;;;;;;40.65;21.13;;;;;;;15.23;75.22;98001.41;5077843;28;20099;-94
2021/11/01 09:46:49;;;;;;;40.97;21.83;;;;;;;15.35;74.55;97997.13;5076864;28;20074;-95
2021/11/01 09:49:16;;;;;;;44.40;24.00;;;;;;;15.45;74.71;97997.47;5078718;28;20025;-96
2021/11/01 09:51:45;;;;;;;45.75;23.95;;;;;;;15.63;74.09;98009.75;5079872;28;20382;-96
2021/11/01 09:54:20;;;;;;;44.20;24.17;;;;;;;15.70;73.78;97987.00;5079604;28;20045;-96
2021/11/01 09:59:53;;;;;;;50.00;26.27;;;;;;;16.00;73.03;97986.09;5011327;27;525591;-95
2021/11/01 10:02:21;;;;;;;63.17;31.35;;;;;;;16.06;72.51;97984.88;5057118;28;20053;-96
2021/11/01 10:04:49;;;;;;;46.85;23.52;;;;;;;16.16;71.35;97984.22;5059281;28;20132;-95
2021/11/01 10:10:44;;;;;;;46.25;24.75;;;;;;;15.94;71.61;97956.97;5100671;27;20389;-96
2021/11/01 10:13:12;;;;;;;50.47;25.92;;;;;;;15.61;73.30;97945.53;5102970;28;20139;-94
2021/11/01 10:18:46;;;;;;;53.53;26.90;;;;;;;16.08;71.35;97913.22;5181248;27;20408;-94
2021/11/01 10:21:15;;;;;;;48.25;25.35;;;;;;;16.46;70.74;97940.31;5181426;27;20042;-94
2021/11/01 10:23:46;;;;;;;;;;;;;;;16.63;70.03;97937.38;5178450;27;20038;-94
2021/11/01 10:29:15;;;;;;;74.80;36.80;;;;;;;16.53;69.99;97901.38;5107875;27;20388;-95
2021/11/01 10:31:43;;;;;;;42.40;23.05;;;;;;;16.58;70.56;97906.44;5123859;28;20048;-95
2021/11/01 10:34:11;;;;;;;49.75;26.83;;;;;;;16.37;71.25;97885.41;5114001;28;20044;-96
2021/11/01 10:36:42;;;;;;;40.78;22.33;;;;;;;16.34;69.80;97887.41;5114449;28;20067;-95
2021/11/01 10:39:11;;;;;;;44.03;23.85;;;;;;;16.30;71.42;97894.78;5102167;28;20072;-96
2021/11/01 10:41:46;;;;;;;50.17;26.73;;;;;;;16.07;71.36;97890.03;5110585;28;20059;-95
2021/11/01 11:50:10;;;;;;;38.50;21.02;;;;;;;14.85;82.33;97739.47;5119531;27;20381;-91
2021/11/01 11:52:36;;;;;;;36.08;19.73;;;;;;;15.04;81.20;97744.56;5120830;28;20046;-93
2021/11/01 11:55:13;;;;;;;36.50;19.55;;;;;;;14.99;82.12;97735.97;5120250;28;20044;-94
2021/11/01 11:57:39;;;;;;;35.70;18.88;;;;;;;15.23;80.33;97740.75;5122905;28;20072;-94
2021/11/01 12:00:12;;;;;;;35.58;20.25;;;;;;;15.26;79.52;97721.81;5119909;28;20055;-93
2021/11/01 12:02:45;;;;;;;33.13;18.65;;;;;;;15.57;77.91;97736.78;5120253;28;20493;-95
2021/11/01 12:05:20;;;;;;;35.63;18.23;;;;;;;15.45;77.93;97716.16;5118826;28;20066;-95
2021/11/01 12:19:51;;;;;;;31.92;16.95;;;;;;;15.81;75.77;97681.63;5119735;27;20388;-94
2021/11/01 12:22:26;;;;;;;29.08;16.98;;;;;;;15.94;76.01;97678.13;5119140;28;20046;-95
2021/11/01 12:24:55;;;;;;;31.02;16.83;;;;;;;15.91;76.23;97668.47;5122555;28;20035;-94
2021/11/01 12:27:21;;;;;;;43.10;22.42;;;;;;;15.91;74.78;97667.63;5121683;28;20097;-95
2021/11/01 12:29:49;;;;;;;77.00;37.10;;;;;;;15.96;74.37;97668.16;5119515;28;20052;-94
2021/11/01 12:32:15;;;;;;;35.92;19.27;;;;;;;15.80;74.45;97658.47;5121062;28;20059;-93
2021/11/01 12:34:55;;;;;;;27.60;15.23;;;;;;;15.92;75.08;97682.75;5117818;28;20481;-94
2021/11/01 12:58:58;;;;;;;34.33;17.15;;;;;;;14.55;88.80;97635.16;5189421;27;20365;-93
2021/11/01 13:01:28;;;;;;;39.40;23.92;;;;;;;14.48;90.82;97644.50;5154145;27;20066;-95
2021/11/01 13:04:05;;;;;;;33.30;17.98;;;;;;;14.32;91.37;97612.47;5155015;27;20043;-94
2021/11/01 13:09:35;;;;;;;32.95;17.00;;;;;;;14.55;92.58;97630.69;5110437;27;20380;-94
2021/11/01 13:21:07;;;;;;;31.65;17.48;;;;;;;14.67;91.01;97593.44;5114542;27;20113;-95
2021/11/01 13:23:36;;;;;;;36.28;21.52;;;;;;;14.79;90.37;97606.03;5114816;28;20048;-94
2021/11/01 13:38:12;;;;;;;34.30;18.55;;;;;;;14.33;91.88;97555.34;5115945;27;20381;-94
2021/11/01 13:40:42;;;;;;;37.22;19.58;;;;;;;14.38;92.11;97569.31;5115825;28;20044;-93
2021/11/01 13:43:08;;;;;;;44.22;22.92;;;;;;;14.34;92.26;97557.09;5117729;28;20048;-94
2021/11/01 13:45:34;;;;;;;36.13;18.88;;;;;;;14.36;92.94;97549.84;5116484;22;20056;-94
2021/11/01 13:48:01;;;;;;;35.25;18.13;;;;;;;14.42;93.60;97570.84;5081177;28;20045;-95
2021/11/01 13:50:34;;;;;;;33.30;16.70;;;;;;;14.50;93.87;97581.06;5075926;28;20045;-94
2021/11/01 13:53:07;;;;;;;36.78;19.35;;;;;;;14.31;94.55;97546.56;5085657;28;20044;-94
2021/11/01 14:18:45;;;;;;;50.80;27.67;;;;;;;14.24;97.84;97505.13;5062898;27;20369;-94
2021/11/01 16:18:12;;;;;;;46.72;26.05;;;;;;;14.08;100.00;97375.09;5146974;27;20380;-92
2021/11/01 16:20:40;;;;;;;46.85;25.92;;;;;;;13.99;100.00;97356.97;5114072;28;20044;-92
2021/11/01 16:28:49;;;;;;;42.90;25.42;;;;;;;14.07;100.00;97351.97;5153926;27;20171;-90
2021/11/01 16:34:21;;;;;;;33.55;17.90;;;;;;;14.16;100.00;97345.19;5123675;27;20467;-91
2021/11/01 16:39:49;;;;;;;44.03;22.35;;;;;;;14.02;100.00;97316.69;5121244;27;20375;-93
2021/11/01 16:42:16;;;;;;;49.83;26.05;;;;;;;14.07;100.00;97324.38;5122421;27;20154;-90
2021/11/01 16:44:47;;;;;;;43.28;22.63;;;;;;;14.09;100.00;97330.50;5119602;28;20524;-89
2021/11/01 16:47:13;;;;;;;44.58;25.15;;;;;;;14.06;100.00;97328.88;5123614;27;20047;-91
2021/11/01 16:49:41;;;;;;;50.83;24.52;;;;;;;14.03;100.00;97313.06;5122201;28;20044;-92
2021/11/01 16:52:15;;;;;;;45.33;25.35;;;;;;;14.16;100.00;97335.38;5122016;28;20096;-90
2021/11/01 16:54:48;;;;;;;47.45;25.38;;;;;;;14.16;100.00;97331.81;5122714;28;20035;-90
2021/11/01 16:57:21;;;;;;;45.03;24.70;;;;;;;14.08;100.00;97316.28;5118855;28;20050;-91
2021/11/01 18:52:32;;;;;;;9.80;6.40;;;;;;;14.69;100.00;97241.00;5073577;27;20740;-92
2021/11/01 18:55:07;;;;;;;12.23;7.05;;;;;;;14.74;100.00;97253.09;5076578;28;20040;-92
2021/11/01 18:57:33;;;;;;;10.57;6.75;;;;;;;14.67;100.00;97243.78;5073622;28;20044;-91
2021/11/01 19:00:04;;;;;;;10.23;7.15;;;;;;;14.66;100.00;97246.53;5071484;28;20072;-92
2021/11/01 20:13:15;;;;;;;8.57;6.03;;;;;;;14.84;100.00;97237.28;5137360;27;20372;-92
2021/11/01 21:27:21;;;;;;;6.32;3.20;;;;;;;15.31;100.00;97316.13;5086849;27;20378;-90
2021/11/01 21:29:48;;;;;;;5.55;2.90;;;;;;;15.33;100.00;97316.88;5089535;28;20131;-90
2021/11/01 21:32:14;;;;;;;6.82;3.67;;;;;;;15.27;100.00;97313.78;5088183;28;20041;-89
2021/11/01 21:37:42;;;;;;;6.10;2.38;;;;;;;15.19;100.00;97316.97;5101778;27;20402;-92
2021/11/01 21:40:11;;;;;;;6.90;3.80;;;;;;;15.17;100.00;97318.91;5070346;28;20048;-90
2021/11/01 21:42:37;;;;;;;5.20;2.90;;;;;;;15.10;100.00;97326.50;5072433;28;20067;-92
2021/11/01 21:45:04;;;;;;;6.90;4.00;;;;;;;15.09;100.00;97342.66;5072292;28;20041;-92
2021/11/01 21:47:31;;;;;;;8.55;4.65;;;;;;;15.04;100.00;97342.97;5070624;28;20048;-91
2021/11/01 21:49:57;;;;;;;5.93;3.78;;;;;;;14.85;100.00;97332.66;5072841;28;20105;-91
2021/11/01 21:52:24;;;;;;;5.95;3.83;;;;;;;14.70;100.00;97339.91;5074043;28;20041;-90
2021/11/01 21:54:54;;;;;;;5.95;2.97;;;;;;;14.57;100.00;97330.94;5073431;28;20036;-91
2021/11/01 22:20:29;;;;;;;4.20;2.25;;;;;;;14.79;95.77;97398.16;5085978;27;20365;-90
2021/11/01 22:23:01;;;;;;;8.05;2.30;;;;;;;14.72;95.18;97388.78;5086071;28;20131;-92
2021/11/01 22:57:30;;;;;;;4.60;1.25;;;;;;;13.98;86.90;97411.38;5114333;27;20392;-92
2021/11/01 22:59:56;;;;;;;2.83;1.33;;;;;;;13.84;87.12;97416.72;5113159;28;20043;-93
2021/11/01 23:02:22;;;;;;;3.45;1.25;;;;;;;13.76;88.63;97419.84;5112776;28;20122;-93
2021/11/01 23:31:49;;;;;;;4.80;1.70;;;;;;;13.34;96.06;97467.75;5150350;27;20377;-90
2021/11/01 23:34:16;;;;;;;5.70;1.50;;;;;;;13.32;96.43;97464.31;5153392;27;20043;-92
2021/11/01 23:36:44;;;;;;;4.47;1.60;;;;;;;13.37;94.97;97471.22;5154070;27;20035;-92
2021/11/01 23:39:11;;;;;;;6.18;1.70;;;;;;;13.23;95.57;97450.59;5153758;27;20035;-91
2021/11/01 23:41:43;;;;;;;5.65;1.65;;;;;;;13.17;96.05;97459.00;5154266;27;20084;-93
2021/11/01 23:44:09;;;;;;;5.35;1.50;;;;;;;13.03;97.55;97457.13;5152971;27;20035;-92
2021/11/01 23:46:36;;;;;;;4.70;1.58;;;;;;;12.83;99.25;97445.78;5151447;27;20536;-92
2021/11/01 23:49:05;;;;;;;5.40;1.95;;;;;;;12.77;99.16;97464.81;5154546;27;20055;-90
2021/11/01 23:51:32;;;;;;;4.32;1.50;;;;;;;12.66;99.37;97437.88;5155219;27;20038;-93
2021/11/01 23:54:12;;;;;;;4.05;1.67;;;;;;;12.66;98.43;97417.41;5155933;27;20043;-93
2021/11/01 23:56:38;;;;;;;3.55;1.80;;;;;;;12.99;91.47;97447.56;5154103;27;20055;-90
2021/11/01 23:59:05;;;;;;;3.10;1.50;;;;;;;13.33;91.62;97431.31;5153305;27;20070;-94
